sensor_id;sensor_type;location;lat;lon;timestamp;P1;durP1;ratioP1;P2;durP2;ratioP2
19794;SDS011;10057;59.402;17.866;2022-10-16T00:02:08;25.97;;;10.83;;
19794;SDS011;10057;59.402;17.866;2022-10-16T00:04:35;27.00;;;11.13;;
19794;SDS011;10057;59.402;17.866;2022-10-16T00:07:02;29.30;;;12.20;;
19794;SDS011;10057;59.402;17.866;2022-10-16T00:09:28;27.20;;;11.53;;
19794;SDS011;10057;59.402;17.866;2022-10-16T00:11:55;27.60;;;11.47;;
19794;SDS011;10057;59.402;17.866;2022-10-16T00:14:21;22.00;;;10.33;;
19794;SDS011;10057;59.402;17.866;2022-10-16T00:16:50;24.23;;;11.40;;
19794;SDS011;10057;59.402;17.866;2022-10-16T00:19:19;26.40;;;11.37;;
19794;SDS011;10057;59.402;17.866;2022-10-16T00:21:46;22.00;;;10.30;;
19794;SDS011;10057;59.402;17.866;2022-10-16T00:24:13;22.30;;;10.27;;
19794;SDS011;10057;59.402;17.866;2022-10-16T00:26:40;23.90;;;10.50;;
19794;SDS011;10057;59.402;17.866;2022-10-16T00:29:09;21.43;;;9.63;;
19794;SDS011;10057;59.402;17.866;2022-10-16T00:31:39;22.50;;;9.67;;
19794;SDS011;10057;59.402;17.866;2022-10-16T00:34:06;24.57;;;10.10;;
19794;SDS011;10057;59.402;17.866;2022-10-16T00:36:35;21.27;;;10.30;;
19794;SDS011;10057;59.402;17.866;2022-10-16T00:39:05;22.37;;;9.90;;
19794;SDS011;10057;59.402;17.866;2022-10-16T00:41:35;25.73;;;10.60;;
19794;SDS011;10057;59.402;17.866;2022-10-16T00:44:02;21.83;;;9.27;;
19794;SDS011;10057;59.402;17.866;2022-10-16T00:46:52;22.37;;;9.93;;
19794;SDS011;10057;59.402;17.866;2022-10-16T00:49:19;21.17;;;9.47;;
19794;SDS011;10057;59.402;17.866;2022-10-16T00:51:48;18.53;;;9.60;;
19794;SDS011;10057;59.402;17.866;2022-10-16T00:54:23;18.33;;;9.73;;
19794;SDS011;10057;59.402;17.866;2022-10-16T00:56:57;20.67;;;9.83;;
19794;SDS011;10057;59.402;17.866;2022-10-16T00:59:33;24.97;;;9.77;;
19794;SDS011;10057;59.402;17.866;2022-10-16T01:02:05;19.13;;;8.87;;
19794;SDS011;10057;59.402;17.866;2022-10-16T01:04:47;20.57;;;10.27;;
19794;SDS011;10057;59.402;17.866;2022-10-16T01:10:20;22.40;;;9.63;;
19794;SDS011;10057;59.402;17.866;2022-10-16T01:13:02;22.80;;;10.73;;
19794;SDS011;10057;59.402;17.866;2022-10-16T01:21:06;21.87;;;9.97;;
19794;SDS011;10057;59.402;17.866;2022-10-16T01:29:09;22.93;;;9.93;;
19794;SDS011;10057;59.402;17.866;2022-10-16T01:32:15;23.87;;;11.30;;
19794;SDS011;10057;59.402;17.866;2022-10-16T01:37:38;27.60;;;11.63;;
19794;SDS011;10057;59.402;17.866;2022-10-16T01:40:11;23.90;;;11.43;;
19794;SDS011;10057;59.402;17.866;2022-10-16T01:42:41;25.60;;;11.30;;
19794;SDS011;10057;59.402;17.866;2022-10-16T01:45:13;26.47;;;11.53;;
19794;SDS011;10057;59.402;17.866;2022-10-16T01:47:44;25.00;;;10.97;;
19794;SDS011;10057;59.402;17.866;2022-10-16T01:50:12;24.00;;;11.07;;
19794;SDS011;10057;59.402;17.866;2022-10-16T01:52:43;25.47;;;11.20;;
19794;SDS011;10057;59.402;17.866;2022-10-16T01:55:14;24.47;;;11.23;;
19794;SDS011;10057;59.402;17.866;2022-10-16T01:57:44;23.23;;;11.07;;
19794;SDS011;10057;59.402;17.866;2022-10-16T02:00:16;21.77;;;10.23;;
19794;SDS011;10057;59.402;17.866;2022-10-16T02:02:46;21.43;;;10.10;;
19794;SDS011;10057;59.402;17.866;2022-10-16T02:07:57;21.97;;;9.93;;
19794;SDS011;10057;59.402;17.866;2022-10-16T02:10:28;19.40;;;9.67;;
19794;SDS011;10057;59.402;17.866;2022-10-16T02:13:15;22.37;;;9.93;;
19794;SDS011;10057;59.402;17.866;2022-10-16T02:15:50;21.37;;;10.27;;
19794;SDS011;10057;59.402;17.866;2022-10-16T02:18:16;19.83;;;9.87;;
19794;SDS011;10057;59.402;17.866;2022-10-16T02:20:48;20.10;;;8.90;;
19794;SDS011;10057;59.402;17.866;2022-10-16T02:26:17;20.07;;;9.40;;
19794;SDS011;10057;59.402;17.866;2022-10-16T02:28:53;18.17;;;9.07;;
19794;SDS011;10057;59.402;17.866;2022-10-16T02:31:25;18.87;;;9.63;;
19794;SDS011;10057;59.402;17.866;2022-10-16T02:33:55;17.43;;;9.03;;
19794;SDS011;10057;59.402;17.866;2022-10-16T02:36:25;17.20;;;8.97;;
19794;SDS011;10057;59.402;17.866;2022-10-16T02:38:53;15.30;;;8.00;;
19794;SDS011;10057;59.402;17.866;2022-10-16T02:41:21;16.33;;;8.90;;
19794;SDS011;10057;59.402;17.866;2022-10-16T02:43:48;16.07;;;8.47;;
19794;SDS011;10057;59.402;17.866;2022-10-16T02:46:16;17.00;;;8.20;;
19794;SDS011;10057;59.402;17.866;2022-10-16T02:48:43;13.50;;;7.80;;
19794;SDS011;10057;59.402;17.866;2022-10-16T02:51:10;14.37;;;7.80;;
19794;SDS011;10057;59.402;17.866;2022-10-16T02:53:36;14.77;;;7.43;;
19794;SDS011;10057;59.402;17.866;2022-10-16T02:56:03;15.37;;;7.70;;
19794;SDS011;10057;59.402;17.866;2022-10-16T02:58:30;15.77;;;7.63;;
19794;SDS011;10057;59.402;17.866;2022-10-16T03:00:57;15.37;;;8.27;;
19794;SDS011;10057;59.402;17.866;2022-10-16T03:03:23;15.70;;;7.73;;
19794;SDS011;10057;59.402;17.866;2022-10-16T03:05:50;12.60;;;7.57;;
19794;SDS011;10057;59.402;17.866;2022-10-16T03:08:17;16.33;;;7.27;;
19794;SDS011;10057;59.402;17.866;2022-10-16T03:10:44;16.50;;;8.07;;
19794;SDS011;10057;59.402;17.866;2022-10-16T03:13:11;15.83;;;7.23;;
19794;SDS011;10057;59.402;17.866;2022-10-16T03:15:38;19.20;;;8.00;;
19794;SDS011;10057;59.402;17.866;2022-10-16T03:18:04;18.27;;;7.63;;
19794;SDS011;10057;59.402;17.866;2022-10-16T03:20:31;14.13;;;7.97;;
19794;SDS011;10057;59.402;17.866;2022-10-16T03:22:58;18.47;;;8.77;;
19794;SDS011;10057;59.402;17.866;2022-10-16T03:25:24;16.63;;;8.13;;
19794;SDS011;10057;59.402;17.866;2022-10-16T03:27:51;19.30;;;7.77;;
19794;SDS011;10057;59.402;17.866;2022-10-16T03:30:18;16.30;;;8.17;;
19794;SDS011;10057;59.402;17.866;2022-10-16T03:32:45;16.27;;;8.10;;
19794;SDS011;10057;59.402;17.866;2022-10-16T03:35:11;17.97;;;8.50;;
19794;SDS011;10057;59.402;17.866;2022-10-16T03:37:38;14.67;;;7.63;;
19794;SDS011;10057;59.402;17.866;2022-10-16T03:40:05;16.90;;;8.23;;
19794;SDS011;10057;59.402;17.866;2022-10-16T03:42:32;17.80;;;8.27;;
19794;SDS011;10057;59.402;17.866;2022-10-16T03:44:59;16.23;;;8.37;;
19794;SDS011;10057;59.402;17.866;2022-10-16T03:47:25;15.10;;;7.77;;
19794;SDS011;10057;59.402;17.866;2022-10-16T03:49:53;13.63;;;7.10;;
19794;SDS011;10057;59.402;17.866;2022-10-16T03:52:19;16.03;;;7.87;;
19794;SDS011;10057;59.402;17.866;2022-10-16T03:54:46;17.93;;;8.17;;
19794;SDS011;10057;59.402;17.866;2022-10-16T03:57:12;15.60;;;7.13;;
19794;SDS011;10057;59.402;17.866;2022-10-16T03:59:39;15.97;;;7.93;;
19794;SDS011;10057;59.402;17.866;2022-10-16T04:02:06;19.53;;;7.90;;
19794;SDS011;10057;59.402;17.866;2022-10-16T04:04:32;15.60;;;7.87;;
19794;SDS011;10057;59.402;17.866;2022-10-16T04:06:59;14.97;;;7.47;;
19794;SDS011;10057;59.402;17.866;2022-10-16T04:09:26;16.00;;;7.33;;
19794;SDS011;10057;59.402;17.866;2022-10-16T04:11:52;23.30;;;8.27;;
19794;SDS011;10057;59.402;17.866;2022-10-16T04:14:19;14.40;;;7.10;;
19794;SDS011;10057;59.402;17.866;2022-10-16T04:16:46;15.73;;;7.10;;
19794;SDS011;10057;59.402;17.866;2022-10-16T04:19:12;13.13;;;7.23;;
19794;SDS011;10057;59.402;17.866;2022-10-16T04:21:39;13.73;;;7.10;;
19794;SDS011;10057;59.402;17.866;2022-10-16T04:24:06;13.17;;;7.10;;
19794;SDS011;10057;59.402;17.866;2022-10-16T04:26:32;13.27;;;6.77;;
19794;SDS011;10057;59.402;17.866;2022-10-16T04:28:59;14.67;;;6.80;;
19794;SDS011;10057;59.402;17.866;2022-10-16T04:31:26;11.97;;;6.50;;
19794;SDS011;10057;59.402;17.866;2022-10-16T04:33:53;14.73;;;6.43;;
19794;SDS011;10057;59.402;17.866;2022-10-16T04:36:19;12.57;;;6.23;;
19794;SDS011;10057;59.402;17.866;2022-10-16T04:38:50;11.80;;;6.37;;
19794;SDS011;10057;59.402;17.866;2022-10-16T04:41:17;12.07;;;6.60;;
19794;SDS011;10057;59.402;17.866;2022-10-16T04:43:43;12.67;;;5.93;;
19794;SDS011;10057;59.402;17.866;2022-10-16T04:46:13;10.57;;;6.00;;
19794;SDS011;10057;59.402;17.866;2022-10-16T04:48:40;10.70;;;5.67;;
19794;SDS011;10057;59.402;17.866;2022-10-16T04:51:07;12.33;;;6.13;;
19794;SDS011;10057;59.402;17.866;2022-10-16T04:53:33;10.23;;;5.60;;
19794;SDS011;10057;59.402;17.866;2022-10-16T04:56:00;10.60;;;6.00;;
19794;SDS011;10057;59.402;17.866;2022-10-16T04:58:27;10.67;;;6.17;;
19794;SDS011;10057;59.402;17.866;2022-10-16T05:00:53;10.93;;;6.00;;
19794;SDS011;10057;59.402;17.866;2022-10-16T05:03:20;9.07;;;5.33;;
19794;SDS011;10057;59.402;17.866;2022-10-16T05:05:47;11.23;;;6.07;;
19794;SDS011;10057;59.402;17.866;2022-10-16T05:08:14;10.93;;;5.20;;
19794;SDS011;10057;59.402;17.866;2022-10-16T05:10:42;10.97;;;5.20;;
19794;SDS011;10057;59.402;17.866;2022-10-16T05:13:10;9.60;;;4.97;;
19794;SDS011;10057;59.402;17.866;2022-10-16T05:15:37;10.33;;;5.30;;
19794;SDS011;10057;59.402;17.866;2022-10-16T05:18:04;10.43;;;5.53;;
19794;SDS011;10057;59.402;17.866;2022-10-16T05:20:31;9.50;;;5.53;;
19794;SDS011;10057;59.402;17.866;2022-10-16T05:22:57;10.77;;;5.53;;
19794;SDS011;10057;59.402;17.866;2022-10-16T05:25:24;15.00;;;5.77;;
19794;SDS011;10057;59.402;17.866;2022-10-16T05:27:51;9.43;;;5.63;;
19794;SDS011;10057;59.402;17.866;2022-10-16T05:30:18;9.33;;;5.13;;
19794;SDS011;10057;59.402;17.866;2022-10-16T05:32:48;11.00;;;5.37;;
19794;SDS011;10057;59.402;17.866;2022-10-16T05:35:17;11.60;;;5.87;;
19794;SDS011;10057;59.402;17.866;2022-10-16T05:37:44;11.43;;;5.60;;
19794;SDS011;10057;59.402;17.866;2022-10-16T05:40:11;10.37;;;5.57;;
19794;SDS011;10057;59.402;17.866;2022-10-16T05:42:39;10.87;;;5.67;;
19794;SDS011;10057;59.402;17.866;2022-10-16T05:45:06;9.07;;;5.47;;
19794;SDS011;10057;59.402;17.866;2022-10-16T05:47:36;10.37;;;6.20;;
19794;SDS011;10057;59.402;17.866;2022-10-16T05:50:02;13.43;;;6.57;;
19794;SDS011;10057;59.402;17.866;2022-10-16T05:52:30;10.20;;;5.63;;
19794;SDS011;10057;59.402;17.866;2022-10-16T05:54:57;13.40;;;6.47;;
19794;SDS011;10057;59.402;17.866;2022-10-16T05:57:23;14.33;;;6.90;;
19794;SDS011;10057;59.402;17.866;2022-10-16T05:59:51;15.37;;;6.47;;
19794;SDS011;10057;59.402;17.866;2022-10-16T06:02:17;14.00;;;6.67;;
19794;SDS011;10057;59.402;17.866;2022-10-16T06:04:44;15.83;;;7.00;;
19794;SDS011;10057;59.402;17.866;2022-10-16T06:07:10;15.17;;;6.87;;
19794;SDS011;10057;59.402;17.866;2022-10-16T06:09:37;15.73;;;7.23;;
19794;SDS011;10057;59.402;17.866;2022-10-16T06:12:06;13.87;;;6.67;;
19794;SDS011;10057;59.402;17.866;2022-10-16T06:14:34;17.83;;;7.40;;
19794;SDS011;10057;59.402;17.866;2022-10-16T06:17:01;15.43;;;7.10;;
19794;SDS011;10057;59.402;17.866;2022-10-16T06:19:35;18.80;;;7.43;;
19794;SDS011;10057;59.402;17.866;2022-10-16T06:22:07;14.10;;;7.60;;
19794;SDS011;10057;59.402;17.866;2022-10-16T06:24:34;16.67;;;7.00;;
19794;SDS011;10057;59.402;17.866;2022-10-16T06:27:02;18.57;;;7.43;;
19794;SDS011;10057;59.402;17.866;2022-10-16T06:29:29;18.97;;;7.20;;
19794;SDS011;10057;59.402;17.866;2022-10-16T06:31:56;13.53;;;7.40;;
19794;SDS011;10057;59.402;17.866;2022-10-16T06:34:23;13.50;;;7.20;;
19794;SDS011;10057;59.402;17.866;2022-10-16T06:36:50;17.00;;;8.17;;
19794;SDS011;10057;59.402;17.866;2022-10-16T06:39:16;19.23;;;7.57;;
19794;SDS011;10057;59.402;17.866;2022-10-16T06:41:43;17.70;;;7.90;;
19794;SDS011;10057;59.402;17.866;2022-10-16T06:44:09;17.80;;;7.70;;
19794;SDS011;10057;59.402;17.866;2022-10-16T06:46:39;18.43;;;8.07;;
19794;SDS011;10057;59.402;17.866;2022-10-16T06:49:05;18.33;;;7.57;;
19794;SDS011;10057;59.402;17.866;2022-10-16T06:51:32;16.03;;;7.37;;
19794;SDS011;10057;59.402;17.866;2022-10-16T06:54:08;19.63;;;8.13;;
19794;SDS011;10057;59.402;17.866;2022-10-16T06:56:35;17.97;;;8.43;;
19794;SDS011;10057;59.402;17.866;2022-10-16T06:59:02;16.80;;;8.03;;
19794;SDS011;10057;59.402;17.866;2022-10-16T07:01:29;17.13;;;7.90;;
19794;SDS011;10057;59.402;17.866;2022-10-16T07:03:56;14.10;;;7.17;;
19794;SDS011;10057;59.402;17.866;2022-10-16T07:06:24;14.90;;;7.63;;
19794;SDS011;10057;59.402;17.866;2022-10-16T07:08:54;15.53;;;7.60;;
19794;SDS011;10057;59.402;17.866;2022-10-16T07:11:22;14.13;;;7.10;;
19794;SDS011;10057;59.402;17.866;2022-10-16T07:13:52;15.83;;;7.17;;
19794;SDS011;10057;59.402;17.866;2022-10-16T07:16:22;11.43;;;6.43;;
19794;SDS011;10057;59.402;17.866;2022-10-16T07:18:53;19.47;;;8.13;;
19794;SDS011;10057;59.402;17.866;2022-10-16T07:21:25;17.27;;;8.13;;
19794;SDS011;10057;59.402;17.866;2022-10-16T07:23:57;18.90;;;9.07;;
19794;SDS011;10057;59.402;17.866;2022-10-16T07:26:26;14.33;;;7.43;;
19794;SDS011;10057;59.402;17.866;2022-10-16T07:28:54;13.43;;;7.40;;
19794;SDS011;10057;59.402;17.866;2022-10-16T07:31:23;13.27;;;6.97;;
19794;SDS011;10057;59.402;17.866;2022-10-16T07:33:57;16.30;;;7.37;;
19794;SDS011;10057;59.402;17.866;2022-10-16T07:36:25;12.63;;;6.80;;
19794;SDS011;10057;59.402;17.866;2022-10-16T07:38:54;11.10;;;6.20;;
19794;SDS011;10057;59.402;17.866;2022-10-16T07:41:25;14.10;;;6.03;;
19794;SDS011;10057;59.402;17.866;2022-10-16T07:43:53;12.97;;;6.80;;
19794;SDS011;10057;59.402;17.866;2022-10-16T07:46:21;13.30;;;6.20;;
19794;SDS011;10057;59.402;17.866;2022-10-16T07:48:49;11.30;;;6.43;;
19794;SDS011;10057;59.402;17.866;2022-10-16T07:51:17;10.17;;;5.63;;
19794;SDS011;10057;59.402;17.866;2022-10-16T07:53:45;12.13;;;5.30;;
19794;SDS011;10057;59.402;17.866;2022-10-16T07:56:13;7.77;;;4.53;;
19794;SDS011;10057;59.402;17.866;2022-10-16T07:58:40;8.27;;;5.00;;
19794;SDS011;10057;59.402;17.866;2022-10-16T08:01:14;7.73;;;4.43;;
19794;SDS011;10057;59.402;17.866;2022-10-16T08:03:46;7.93;;;4.07;;
19794;SDS011;10057;59.402;17.866;2022-10-16T08:06:23;14.67;;;7.77;;
19794;SDS011;10057;59.402;17.866;2022-10-16T08:09:03;9.57;;;4.27;;
19794;SDS011;10057;59.402;17.866;2022-10-16T08:11:30;9.37;;;3.90;;
19794;SDS011;10057;59.402;17.866;2022-10-16T08:13:57;6.63;;;4.00;;
19794;SDS011;10057;59.402;17.866;2022-10-16T08:16:31;7.93;;;3.80;;
19794;SDS011;10057;59.402;17.866;2022-10-16T08:18:57;7.17;;;3.83;;
19794;SDS011;10057;59.402;17.866;2022-10-16T08:21:24;7.30;;;3.70;;
19794;SDS011;10057;59.402;17.866;2022-10-16T08:23:54;7.23;;;3.70;;
19794;SDS011;10057;59.402;17.866;2022-10-16T08:26:23;6.37;;;3.80;;
19794;SDS011;10057;59.402;17.866;2022-10-16T08:28:51;7.40;;;3.77;;
19794;SDS011;10057;59.402;17.866;2022-10-16T08:31:18;7.13;;;3.60;;
19794;SDS011;10057;59.402;17.866;2022-10-16T08:33:45;11.10;;;4.47;;
19794;SDS011;10057;59.402;17.866;2022-10-16T08:36:13;9.70;;;4.17;;
19794;SDS011;10057;59.402;17.866;2022-10-16T08:38:41;7.43;;;4.00;;
19794;SDS011;10057;59.402;17.866;2022-10-16T08:41:13;6.50;;;3.60;;
19794;SDS011;10057;59.402;17.866;2022-10-16T08:49:19;6.53;;;3.17;;
19794;SDS011;10057;59.402;17.866;2022-10-16T08:51:46;5.93;;;3.53;;
19794;SDS011;10057;59.402;17.866;2022-10-16T08:56:49;5.83;;;3.17;;
19794;SDS011;10057;59.402;17.866;2022-10-16T08:59:16;5.87;;;2.90;;
19794;SDS011;10057;59.402;17.866;2022-10-16T09:01:45;7.77;;;3.10;;
19794;SDS011;10057;59.402;17.866;2022-10-16T09:13:02;9.03;;;2.80;;
19794;SDS011;10057;59.402;17.866;2022-10-16T09:15:46;6.73;;;3.03;;
19794;SDS011;10057;59.402;17.866;2022-10-16T09:21:01;4.97;;;3.03;;
19794;SDS011;10057;59.402;17.866;2022-10-16T09:23:34;7.80;;;3.03;;
19794;SDS011;10057;59.402;17.866;2022-10-16T09:26:03;5.43;;;2.80;;
19794;SDS011;10057;59.402;17.866;2022-10-16T09:28:35;6.10;;;2.53;;
19794;SDS011;10057;59.402;17.866;2022-10-16T09:31:02;5.33;;;2.60;;
19794;SDS011;10057;59.402;17.866;2022-10-16T09:33:30;7.50;;;3.07;;
19794;SDS011;10057;59.402;17.866;2022-10-16T09:36:02;5.10;;;3.03;;
19794;SDS011;10057;59.402;17.866;2022-10-16T09:38:32;7.40;;;2.50;;
19794;SDS011;10057;59.402;17.866;2022-10-16T09:41:10;7.13;;;2.83;;
19794;SDS011;10057;59.402;17.866;2022-10-16T09:46:22;4.23;;;2.20;;
19794;SDS011;10057;59.402;17.866;2022-10-16T09:48:53;5.57;;;2.50;;
19794;SDS011;10057;59.402;17.866;2022-10-16T09:51:32;4.57;;;2.50;;
19794;SDS011;10057;59.402;17.866;2022-10-16T09:56:35;7.33;;;2.30;;
19794;SDS011;10057;59.402;17.866;2022-10-16T09:59:12;7.00;;;2.60;;
19794;SDS011;10057;59.402;17.866;2022-10-16T10:01:44;3.73;;;1.93;;
19794;SDS011;10057;59.402;17.866;2022-10-16T10:04:13;7.97;;;2.20;;
19794;SDS011;10057;59.402;17.866;2022-10-16T10:06:59;5.07;;;2.50;;
19794;SDS011;10057;59.402;17.866;2022-10-16T10:09:26;3.77;;;2.00;;
19794;SDS011;10057;59.402;17.866;2022-10-16T10:11:57;7.23;;;2.10;;
19794;SDS011;10057;59.402;17.866;2022-10-16T10:14:37;5.03;;;2.00;;
19794;SDS011;10057;59.402;17.866;2022-10-16T10:19:44;5.80;;;1.80;;
19794;SDS011;10057;59.402;17.866;2022-10-16T10:22:31;4.37;;;1.83;;
19794;SDS011;10057;59.402;17.866;2022-10-16T10:30:27;6.53;;;2.17;;
19794;SDS011;10057;59.402;17.866;2022-10-16T10:38:38;5.67;;;1.80;;
19794;SDS011;10057;59.402;17.866;2022-10-16T10:52:29;6.10;;;1.90;;
19794;SDS011;10057;59.402;17.866;2022-10-16T10:55:20;7.60;;;1.90;;
19794;SDS011;10057;59.402;17.866;2022-10-16T11:01:12;6.53;;;1.80;;
19794;SDS011;10057;59.402;17.866;2022-10-16T11:07:05;5.80;;;2.10;;
19794;SDS011;10057;59.402;17.866;2022-10-16T11:09:43;4.70;;;2.10;;
19794;SDS011;10057;59.402;17.866;2022-10-16T11:12:20;8.40;;;2.07;;
19794;SDS011;10057;59.402;17.866;2022-10-16T11:20:27;5.37;;;1.60;;
19794;SDS011;10057;59.402;17.866;2022-10-16T11:23:00;9.60;;;2.10;;
19794;SDS011;10057;59.402;17.866;2022-10-16T11:25:34;9.00;;;2.20;;
19794;SDS011;10057;59.402;17.866;2022-10-16T11:36:51;5.70;;;1.87;;
19794;SDS011;10057;59.402;17.866;2022-10-16T11:39:33;5.67;;;1.83;;
19794;SDS011;10057;59.402;17.866;2022-10-16T11:42:03;4.83;;;1.83;;
19794;SDS011;10057;59.402;17.866;2022-10-16T11:55:47;11.77;;;2.40;;
19794;SDS011;10057;59.402;17.866;2022-10-16T12:03:38;7.53;;;2.03;;
19794;SDS011;10057;59.402;17.866;2022-10-16T12:09:26;12.03;;;1.97;;
19794;SDS011;10057;59.402;17.866;2022-10-16T12:11:54;13.60;;;2.13;;
19794;SDS011;10057;59.402;17.866;2022-10-16T12:14:32;4.37;;;1.80;;
19794;SDS011;10057;59.402;17.866;2022-10-16T12:20:32;6.13;;;1.80;;
19794;SDS011;10057;59.402;17.866;2022-10-16T12:23:21;4.77;;;2.00;;
19794;SDS011;10057;59.402;17.866;2022-10-16T12:25:31;5.67;;;1.70;;
19794;SDS011;10057;59.402;17.866;2022-10-16T12:28:02;4.57;;;1.60;;
19794;SDS011;10057;59.402;17.866;2022-10-16T12:30:40;5.43;;;1.53;;
19794;SDS011;10057;59.402;17.866;2022-10-16T12:33:19;4.83;;;1.80;;
19794;SDS011;10057;59.402;17.866;2022-10-16T12:35:47;5.80;;;1.90;;
19794;SDS011;10057;59.402;17.866;2022-10-16T12:38:21;4.67;;;2.33;;
19794;SDS011;10057;59.402;17.866;2022-10-16T12:41:01;6.17;;;2.00;;
19794;SDS011;10057;59.402;17.866;2022-10-16T12:48:40;6.67;;;1.93;;
19794;SDS011;10057;59.402;17.866;2022-10-16T12:51:22;5.77;;;2.20;;
19794;SDS011;10057;59.402;17.866;2022-10-16T12:54:11;6.87;;;2.23;;
19794;SDS011;10057;59.402;17.866;2022-10-16T13:17:11;5.40;;;2.10;;
19794;SDS011;10057;59.402;17.866;2022-10-16T13:22:51;7.90;;;2.13;;
19794;SDS011;10057;59.402;17.866;2022-10-16T13:28:28;6.13;;;2.00;;
19794;SDS011;10057;59.402;17.866;2022-10-16T13:30:58;6.50;;;1.70;;
19794;SDS011;10057;59.402;17.866;2022-10-16T13:33:34;5.17;;;1.60;;
19794;SDS011;10057;59.402;17.866;2022-10-16T13:36:07;2.97;;;1.77;;
19794;SDS011;10057;59.402;17.866;2022-10-16T13:38:45;9.00;;;2.07;;
19794;SDS011;10057;59.402;17.866;2022-10-16T13:41:16;5.93;;;1.90;;
19794;SDS011;10057;59.402;17.866;2022-10-16T13:43:45;4.67;;;1.83;;
19794;SDS011;10057;59.402;17.866;2022-10-16T13:46:17;4.37;;;1.90;;
19794;SDS011;10057;59.402;17.866;2022-10-16T13:51:32;13.50;;;2.50;;
19794;SDS011;10057;59.402;17.866;2022-10-16T13:53:59;23.73;;;2.80;;
19794;SDS011;10057;59.402;17.866;2022-10-16T13:56:30;5.47;;;2.10;;
19794;SDS011;10057;59.402;17.866;2022-10-16T14:01:31;8.77;;;2.20;;
19794;SDS011;10057;59.402;17.866;2022-10-16T14:04:18;2.70;;;1.47;;
19794;SDS011;10057;59.402;17.866;2022-10-16T14:06:45;6.80;;;1.70;;
19794;SDS011;10057;59.402;17.866;2022-10-16T14:09:24;4.13;;;1.50;;
19794;SDS011;10057;59.402;17.866;2022-10-16T14:11:54;5.37;;;1.87;;
19794;SDS011;10057;59.402;17.866;2022-10-16T14:14:24;5.80;;;1.70;;
19794;SDS011;10057;59.402;17.866;2022-10-16T14:16:53;3.83;;;1.83;;
19794;SDS011;10057;59.402;17.866;2022-10-16T14:19:24;4.03;;;1.80;;
19794;SDS011;10057;59.402;17.866;2022-10-16T14:21:53;5.60;;;1.70;;
19794;SDS011;10057;59.402;17.866;2022-10-16T14:24:30;3.47;;;1.80;;
19794;SDS011;10057;59.402;17.866;2022-10-16T14:26:59;5.43;;;2.30;;
19794;SDS011;10057;59.402;17.866;2022-10-16T14:29:28;8.83;;;2.17;;
19794;SDS011;10057;59.402;17.866;2022-10-16T14:34:36;3.83;;;1.60;;
19794;SDS011;10057;59.402;17.866;2022-10-16T14:37:14;4.23;;;2.00;;
19794;SDS011;10057;59.402;17.866;2022-10-16T14:39:53;7.70;;;2.13;;
19794;SDS011;10057;59.402;17.866;2022-10-16T14:42:22;7.50;;;2.40;;
19794;SDS011;10057;59.402;17.866;2022-10-16T14:44:51;6.83;;;2.27;;
19794;SDS011;10057;59.402;17.866;2022-10-16T14:47:20;4.87;;;2.77;;
19794;SDS011;10057;59.402;17.866;2022-10-16T14:49:53;10.37;;;3.20;;
19794;SDS011;10057;59.402;17.866;2022-10-16T14:52:25;8.77;;;3.83;;
19794;SDS011;10057;59.402;17.866;2022-10-16T14:54:55;7.67;;;4.30;;
19794;SDS011;10057;59.402;17.866;2022-10-16T14:57:23;7.30;;;4.00;;
19794;SDS011;10057;59.402;17.866;2022-10-16T14:59:53;11.13;;;4.23;;
19794;SDS011;10057;59.402;17.866;2022-10-16T15:02:23;11.27;;;5.87;;
19794;SDS011;10057;59.402;17.866;2022-10-16T15:04:54;10.17;;;3.90;;
19794;SDS011;10057;59.402;17.866;2022-10-16T15:07:24;10.97;;;5.10;;
19794;SDS011;10057;59.402;17.866;2022-10-16T15:09:54;17.27;;;6.80;;
19794;SDS011;10057;59.402;17.866;2022-10-16T15:12:23;14.53;;;4.57;;
19794;SDS011;10057;59.402;17.866;2022-10-16T15:14:50;17.27;;;4.53;;
19794;SDS011;10057;59.402;17.866;2022-10-16T15:17:16;10.83;;;3.90;;
19794;SDS011;10057;59.402;17.866;2022-10-16T15:19:47;9.37;;;3.43;;
19794;SDS011;10057;59.402;17.866;2022-10-16T15:22:13;23.70;;;3.60;;
19794;SDS011;10057;59.402;17.866;2022-10-16T15:24:43;8.43;;;2.93;;
19794;SDS011;10057;59.402;17.866;2022-10-16T15:27:10;6.10;;;2.40;;
19794;SDS011;10057;59.402;17.866;2022-10-16T15:29:36;5.70;;;1.40;;
19794;SDS011;10057;59.402;17.866;2022-10-16T15:32:03;4.87;;;1.63;;
19794;SDS011;10057;59.402;17.866;2022-10-16T15:34:30;2.20;;;1.40;;
19794;SDS011;10057;59.402;17.866;2022-10-16T15:37:02;2.43;;;0.90;;
19794;SDS011;10057;59.402;17.866;2022-10-16T15:39:29;3.90;;;1.00;;
19794;SDS011;10057;59.402;17.866;2022-10-16T15:41:56;2.43;;;1.10;;
19794;SDS011;10057;59.402;17.866;2022-10-16T15:44:22;7.40;;;1.17;;
19794;SDS011;10057;59.402;17.866;2022-10-16T15:46:52;3.10;;;1.10;;
19794;SDS011;10057;59.402;17.866;2022-10-16T15:49:21;3.17;;;0.90;;
19794;SDS011;10057;59.402;17.866;2022-10-16T15:51:48;7.73;;;1.20;;
19794;SDS011;10057;59.402;17.866;2022-10-16T15:54:14;8.43;;;1.20;;
19794;SDS011;10057;59.402;17.866;2022-10-16T15:56:43;6.03;;;1.07;;
19794;SDS011;10057;59.402;17.866;2022-10-16T15:59:11;4.30;;;1.30;;
19794;SDS011;10057;59.402;17.866;2022-10-16T16:01:38;7.70;;;1.37;;
19794;SDS011;10057;59.402;17.866;2022-10-16T16:04:05;7.60;;;1.23;;
19794;SDS011;10057;59.402;17.866;2022-10-16T16:06:45;4.43;;;1.20;;
19794;SDS011;10057;59.402;17.866;2022-10-16T16:09:12;5.63;;;1.60;;
19794;SDS011;10057;59.402;17.866;2022-10-16T16:11:40;7.90;;;1.20;;
19794;SDS011;10057;59.402;17.866;2022-10-16T16:14:12;3.20;;;1.07;;
19794;SDS011;10057;59.402;17.866;2022-10-16T16:16:40;6.00;;;0.90;;
19794;SDS011;10057;59.402;17.866;2022-10-16T16:19:07;4.97;;;1.17;;
19794;SDS011;10057;59.402;17.866;2022-10-16T16:21:37;6.73;;;1.17;;
19794;SDS011;10057;59.402;17.866;2022-10-16T16:24:04;2.77;;;1.00;;
19794;SDS011;10057;59.402;17.866;2022-10-16T16:26:34;5.60;;;0.80;;
19794;SDS011;10057;59.402;17.866;2022-10-16T16:29:03;3.33;;;1.20;;
19794;SDS011;10057;59.402;17.866;2022-10-16T16:31:31;7.53;;;1.07;;
19794;SDS011;10057;59.402;17.866;2022-10-16T16:33:58;5.87;;;1.40;;
19794;SDS011;10057;59.402;17.866;2022-10-16T16:36:25;3.07;;;1.00;;
19794;SDS011;10057;59.402;17.866;2022-10-16T16:38:52;2.73;;;0.90;;
19794;SDS011;10057;59.402;17.866;2022-10-16T16:41:20;3.70;;;1.20;;
19794;SDS011;10057;59.402;17.866;2022-10-16T16:43:48;2.67;;;0.77;;
19794;SDS011;10057;59.402;17.866;2022-10-16T16:46:17;5.47;;;2.07;;
19794;SDS011;10057;59.402;17.866;2022-10-16T16:48:44;2.70;;;0.93;;
19794;SDS011;10057;59.402;17.866;2022-10-16T16:51:15;3.07;;;0.87;;
19794;SDS011;10057;59.402;17.866;2022-10-16T16:53:48;2.97;;;0.90;;
19794;SDS011;10057;59.402;17.866;2022-10-16T16:56:16;3.73;;;1.20;;
19794;SDS011;10057;59.402;17.866;2022-10-16T16:58:45;5.40;;;1.10;;
19794;SDS011;10057;59.402;17.866;2022-10-16T17:01:16;2.70;;;0.70;;
19794;SDS011;10057;59.402;17.866;2022-10-16T17:03:46;2.47;;;0.57;;
19794;SDS011;10057;59.402;17.866;2022-10-16T17:06:16;2.67;;;0.50;;
19794;SDS011;10057;59.402;17.866;2022-10-16T17:08:46;4.27;;;0.73;;
19794;SDS011;10057;59.402;17.866;2022-10-16T17:11:14;1.23;;;0.30;;
19794;SDS011;10057;59.402;17.866;2022-10-16T17:13:46;2.13;;;0.50;;
19794;SDS011;10057;59.402;17.866;2022-10-16T17:16:23;6.20;;;0.50;;
19794;SDS011;10057;59.402;17.866;2022-10-16T17:18:51;1.80;;;0.30;;